Weather at Pegasus Airpark

Public forecast

Using degrees Fahrenheit for public forecast. Weather courtesy of forecast.io.

Closest aviation weather report (METAR) to Pegasus Airpark

Closest report is Phoenix–Mesa Gateway Airport, 6.2 nm (11.6 km) NNW.

2024/03/01 16:48 (retrieved 13 minutes ago)

KIWA 011648Z 15007KT 10SM CLR 17/06 A3016

Closest aviation forecast (TAF) to Pegasus Airpark

Closest forecast is Phoenix–Mesa Gateway Airport, 6.2 nm (11.6 km) NNW.

2024/03/01 12:30 (retrieved 5 hours ago)

TAF KIWA 011129Z 0112/0212 12006KT P6SM SKC FM012200 23008KT P6SM FEW250 FM020500 12005KT P6SM SCT250